createdAt,value
2018-12-30T00:00:35.134Z,1020.88
2018-12-30T00:01:35.160Z,1020.89
2018-12-30T00:02:35.114Z,1020.93
2018-12-30T00:03:35.103Z,1020.97
2018-12-30T00:04:35.122Z,1020.90
2018-12-30T00:05:35.079Z,1021.02
2018-12-30T00:06:35.075Z,1020.97
2018-12-30T00:07:35.057Z,1021.14
2018-12-30T00:08:35.045Z,1021.10
2018-12-30T00:09:35.059Z,1021.01
2018-12-30T00:10:35.025Z,1021.10
2018-12-30T00:11:35.019Z,1021.16
2018-12-30T00:12:35.062Z,1021.23
2018-12-30T00:13:34.994Z,1021.27
2018-12-30T00:14:35.005Z,1021.18
2018-12-30T00:15:34.968Z,1021.21
2018-12-30T00:16:34.960Z,1021.27
2018-12-30T00:17:34.952Z,1021.34
2018-12-30T00:18:34.950Z,1021.31
2018-12-30T00:19:42.329Z,1021.34
2018-12-30T00:20:34.915Z,1021.28
2018-12-30T00:21:34.903Z,1021.31
2018-12-30T00:22:34.894Z,1021.36
2018-12-30T00:23:34.880Z,1021.33
2018-12-30T00:24:34.893Z,1021.32
2018-12-30T00:25:34.857Z,1021.28
2018-12-30T00:26:34.850Z,1021.41
2018-12-30T00:27:34.837Z,1021.43
2018-12-30T00:28:34.823Z,1021.44
2018-12-30T00:29:34.838Z,1021.39
2018-12-30T00:30:34.815Z,1021.47
2018-12-30T00:31:34.792Z,1021.48
2018-12-30T00:32:34.779Z,1021.39
2018-12-30T00:33:34.767Z,1021.51
2018-12-30T00:34:34.806Z,1021.47
2018-12-30T00:35:34.757Z,1021.49
2018-12-30T00:36:34.735Z,1021.54
2018-12-30T00:37:34.724Z,1021.43
2018-12-30T00:38:34.711Z,1021.44
2018-12-30T00:39:34.701Z,1021.46
2018-12-30T00:40:34.785Z,1021.51
2018-12-30T00:41:34.678Z,1021.55
2018-12-30T00:42:34.668Z,1021.63
2018-12-30T00:43:34.736Z,1021.60
2018-12-30T00:44:34.645Z,1021.56
2018-12-30T00:45:34.658Z,1021.53
2018-12-30T00:46:34.627Z,1021.52
2018-12-30T00:47:34.612Z,1021.60
2018-12-30T00:48:34.601Z,1021.57
2018-12-30T00:49:34.590Z,1021.60
2018-12-30T00:50:34.605Z,1021.66
2018-12-30T00:51:34.567Z,1021.65
2018-12-30T00:52:34.557Z,1021.65
2018-12-30T00:53:34.546Z,1021.67
2018-12-30T00:54:34.538Z,1021.64
2018-12-30T00:55:34.550Z,1021.68
2018-12-30T00:56:34.513Z,1021.76
2018-12-30T00:57:34.501Z,1021.74
2018-12-30T00:58:34.494Z,1021.84
2018-12-30T00:59:34.478Z,1021.78
2018-12-30T01:00:34.490Z,1021.77
2018-12-30T01:01:34.455Z,1021.80
2018-12-30T01:02:34.447Z,1021.83
2018-12-30T01:03:34.434Z,1021.99
2018-12-30T01:04:34.428Z,1021.95
2018-12-30T01:05:34.448Z,1021.88
2018-12-30T01:06:34.400Z,1021.95
2018-12-30T01:07:34.392Z,1021.94
2018-12-30T01:08:34.380Z,1021.97
2018-12-30T01:09:34.375Z,1021.93
2018-12-30T01:10:34.358Z,1021.99
2018-12-30T01:11:34.370Z,1021.94
2018-12-30T01:12:34.335Z,1021.91
2018-12-30T01:13:34.329Z,1022.01
2018-12-30T01:14:34.314Z,1021.99
2018-12-30T01:15:34.301Z,1021.98
2018-12-30T01:16:34.319Z,1021.97
2018-12-30T01:17:34.290Z,1022.05
2018-12-30T01:18:34.269Z,1022.06
2018-12-30T01:19:34.257Z,1022.07
2018-12-30T01:20:34.245Z,1022.03
2018-12-30T01:21:34.257Z,1022.09
2018-12-30T01:22:34.223Z,1022.09
2018-12-30T01:23:34.210Z,1022.03
2018-12-30T01:24:34.200Z,1022.15
2018-12-30T01:25:34.192Z,1022.12
2018-12-30T01:26:34.222Z,1022.15
2018-12-30T01:27:34.169Z,1022.16
2018-12-30T01:28:34.155Z,1022.14
2018-12-30T01:29:34.145Z,1022.21
2018-12-30T01:30:34.137Z,1022.22
2018-12-30T01:31:34.147Z,1022.25
2018-12-30T01:32:34.115Z,1022.29
2018-12-30T01:33:34.101Z,1022.13
2018-12-30T01:34:34.089Z,1022.13
2018-12-30T01:35:34.080Z,1022.14
2018-12-30T01:36:34.093Z,1022.24
2018-12-30T01:37:34.057Z,1022.37
2018-12-30T01:38:34.047Z,1022.37
2018-12-30T01:39:34.035Z,1022.37
2018-12-30T01:40:34.031Z,1022.43
2018-12-30T01:41:34.047Z,1022.48
2018-12-30T01:42:34.005Z,1022.47
2018-12-30T01:43:33.995Z,1022.39
2018-12-30T01:44:33.978Z,1022.38
2018-12-30T01:45:33.965Z,1022.41
2018-12-30T01:46:33.956Z,1022.40
2018-12-30T01:47:33.965Z,1022.44
2018-12-30T01:48:33.933Z,1022.40
2018-12-30T01:49:33.926Z,1022.46
2018-12-30T01:50:33.911Z,1022.50
2018-12-30T01:51:33.902Z,1022.44
2018-12-30T01:52:33.912Z,1022.46
2018-12-30T01:53:33.877Z,1022.47
2018-12-30T01:54:33.870Z,1022.46
2018-12-30T01:55:33.858Z,1022.51
2018-12-30T01:56:33.856Z,1022.55
2018-12-30T01:57:33.862Z,1022.57
2018-12-30T01:58:33.830Z,1022.57
2018-12-30T01:59:33.817Z,1022.53
2018-12-30T02:00:33.802Z,1022.60
2018-12-30T02:01:33.790Z,1022.62
2018-12-30T02:02:33.802Z,1022.65
2018-12-30T02:03:33.767Z,1022.64
2018-12-30T02:04:33.756Z,1022.66
2018-12-30T02:05:33.747Z,1022.69
2018-12-30T02:06:33.739Z,1022.67
2018-12-30T02:07:33.752Z,1022.67
2018-12-30T02:08:33.712Z,1022.67
2018-12-30T02:09:33.700Z,1022.74
2018-12-30T02:10:33.689Z,1022.71
2018-12-30T02:11:33.681Z,1022.89
2018-12-30T02:12:33.711Z,1022.82
2018-12-30T02:13:33.658Z,1022.80
2018-12-30T02:14:33.645Z,1022.74
2018-12-30T02:15:33.634Z,1022.78
2018-12-30T02:16:33.627Z,1022.77
2018-12-30T02:17:33.614Z,1022.72
2018-12-30T02:18:33.622Z,1022.78
2018-12-30T02:19:33.605Z,1022.63
2018-12-30T02:20:33.581Z,1022.69
2018-12-30T02:21:40.928Z,1022.74
2018-12-30T02:22:34.556Z,1022.76
2018-12-30T02:23:33.567Z,1022.69
2018-12-30T02:24:33.538Z,1022.75
2018-12-30T02:25:33.522Z,1022.62
2018-12-30T02:26:33.511Z,1022.79
2018-12-30T02:27:33.499Z,1022.82
2018-12-30T02:28:33.521Z,1022.86
2018-12-30T02:29:33.480Z,1022.88
2018-12-30T02:30:33.472Z,1022.90
2018-12-30T02:31:33.455Z,1022.92
2018-12-30T02:32:33.444Z,1022.85
2018-12-30T02:33:33.458Z,1022.88
2018-12-30T02:34:33.424Z,1022.82
2018-12-30T02:35:33.410Z,1022.86
2018-12-30T02:36:33.408Z,1022.85
2018-12-30T02:37:33.391Z,1022.91
2018-12-30T02:38:33.400Z,1022.86
2018-12-30T02:39:33.368Z,1022.91
2018-12-30T02:40:33.355Z,1022.95
2018-12-30T02:41:33.349Z,1022.98
2018-12-30T02:42:33.352Z,1023.06
2018-12-30T02:43:33.344Z,1023.04
2018-12-30T02:44:33.315Z,1023.12
2018-12-30T02:45:33.303Z,1023.13
2018-12-30T02:46:33.289Z,1023.11
2018-12-30T02:47:33.280Z,1023.05
2018-12-30T02:48:33.300Z,1023.10
2018-12-30T02:49:33.258Z,1023.08
2018-12-30T02:50:33.243Z,1023.05
2018-12-30T02:51:33.232Z,1023.04
2018-12-30T02:52:33.224Z,1023.08
2018-12-30T02:53:33.240Z,1023.04
2018-12-30T02:54:33.200Z,1023.07
2018-12-30T02:55:33.188Z,1023.08
2018-12-30T02:56:33.177Z,1023.04
2018-12-30T02:57:33.166Z,1022.98
2018-12-30T02:58:33.180Z,1022.97
2018-12-30T02:59:33.145Z,1022.91
2018-12-30T03:00:33.134Z,1022.93
2018-12-30T03:01:33.133Z,1023.06
2018-12-30T03:02:33.112Z,1023.09
2018-12-30T03:03:33.123Z,1023.10
2018-12-30T03:04:33.090Z,1023.08
2018-12-30T03:05:33.077Z,1023.04
2018-12-30T03:06:33.070Z,1023.14
2018-12-30T03:07:33.056Z,1023.02
2018-12-30T03:08:33.067Z,1023.04
2018-12-30T03:09:33.033Z,1023.08
2018-12-30T03:10:33.022Z,1023.01
2018-12-30T03:11:33.012Z,1023.00
2018-12-30T03:12:33.000Z,1022.92
2018-12-30T03:13:33.015Z,1022.97
2018-12-30T03:14:32.978Z,1022.96
2018-12-30T03:15:32.975Z,1022.90
2018-12-30T03:16:32.957Z,1022.90
2018-12-30T03:17:32.948Z,1022.87
2018-12-30T03:18:32.979Z,1022.90
2018-12-30T03:19:32.924Z,1022.91
2018-12-30T03:20:32.915Z,1022.97
2018-12-30T03:21:32.901Z,1022.95
2018-12-30T03:22:32.889Z,1022.89
2018-12-30T03:23:32.878Z,1022.93
2018-12-30T03:24:32.891Z,1022.88
2018-12-30T03:25:32.855Z,1022.80
2018-12-30T03:26:32.844Z,1022.80
2018-12-30T03:27:32.837Z,1022.83
2018-12-30T03:28:32.821Z,1022.86
2018-12-30T03:29:32.836Z,1022.84
2018-12-30T03:30:32.807Z,1022.83
2018-12-30T03:31:32.788Z,1022.79
2018-12-30T03:32:32.781Z,1022.78
2018-12-30T03:33:32.767Z,1022.86
2018-12-30T03:34:32.779Z,1022.79
2018-12-30T03:35:32.745Z,1022.79
2018-12-30T03:36:32.732Z,1022.81
2018-12-30T03:37:32.722Z,1022.84
2018-12-30T03:38:32.716Z,1022.82
2018-12-30T03:39:32.726Z,1022.93
2018-12-30T03:40:32.689Z,1022.90
2018-12-30T03:41:32.676Z,1022.91
2018-12-30T03:42:32.665Z,1022.88
2018-12-30T03:43:32.657Z,1022.90
2018-12-30T03:44:32.673Z,1022.83
2018-12-30T03:45:32.634Z,1022.80
2018-12-30T03:46:32.628Z,1022.86
2018-12-30T03:47:32.611Z,1022.85
2018-12-30T03:48:32.598Z,1022.88
2018-12-30T03:49:32.632Z,1022.90
2018-12-30T03:50:32.581Z,1022.95
2018-12-30T03:51:32.570Z,1022.99
2018-12-30T03:52:32.554Z,1022.95
2018-12-30T03:53:32.542Z,1022.86
2018-12-30T03:54:32.562Z,1022.89
2018-12-30T03:55:32.543Z,1022.90
2018-12-30T03:56:32.509Z,1022.88
2018-12-30T03:57:32.502Z,1022.74
2018-12-30T03:58:32.489Z,1022.74
2018-12-30T03:59:32.477Z,1022.75
2018-12-30T04:00:32.490Z,1022.74
2018-12-30T04:01:32.517Z,1022.70
2018-12-30T04:02:32.445Z,1022.73
2018-12-30T04:03:32.441Z,1022.77
2018-12-30T04:04:32.424Z,1022.82
2018-12-30T04:05:32.433Z,1022.94
2018-12-30T04:06:32.400Z,1022.95
2018-12-30T04:07:32.389Z,1022.97
2018-12-30T04:08:32.376Z,1022.99
2018-12-30T04:09:32.373Z,1023.02
2018-12-30T04:10:32.385Z,1023.08
2018-12-30T04:11:32.344Z,1023.08
2018-12-30T04:12:32.334Z,1023.13
2018-12-30T04:13:32.320Z,1023.21
2018-12-30T04:14:32.314Z,1023.16
2018-12-30T04:15:32.322Z,1023.19
2018-12-30T04:16:32.292Z,1023.25
2018-12-30T04:17:32.284Z,1023.20
2018-12-30T04:18:32.267Z,1023.20
2018-12-30T04:19:32.260Z,1023.24
2018-12-30T04:20:32.270Z,1023.22
2018-12-30T04:21:32.232Z,1023.29
2018-12-30T04:22:33.882Z,1023.26
2018-12-30T04:23:32.209Z,1023.14
2018-12-30T04:24:32.202Z,1023.12
2018-12-30T04:25:32.221Z,1023.10
2018-12-30T04:26:32.178Z,1023.14
2018-12-30T04:27:32.205Z,1023.11
2018-12-30T04:28:32.153Z,1023.18
2018-12-30T04:29:32.143Z,1023.23
2018-12-30T04:30:32.133Z,1023.19
2018-12-30T04:31:32.149Z,1023.25
2018-12-30T04:32:32.129Z,1023.24
2018-12-30T04:33:32.111Z,1023.28
2018-12-30T04:34:32.089Z,1023.27
2018-12-30T04:35:32.076Z,1023.31
2018-12-30T04:36:32.143Z,1023.24
2018-12-30T04:37:32.055Z,1023.32
2018-12-30T04:38:32.048Z,1023.33
2018-12-30T04:39:32.033Z,1023.41
2018-12-30T04:40:32.021Z,1023.35
2018-12-30T04:41:32.033Z,1023.33
2018-12-30T04:42:31.998Z,1023.30
2018-12-30T04:43:31.996Z,1023.29
2018-12-30T04:44:32.006Z,1023.38
2018-12-30T04:45:31.967Z,1023.39
2018-12-30T04:46:31.988Z,1023.39
2018-12-30T04:47:31.986Z,1023.25
2018-12-30T04:48:31.935Z,1023.20
2018-12-30T04:49:31.923Z,1023.10
2018-12-30T04:50:31.914Z,1023.02
2018-12-30T04:51:31.923Z,1023.05
2018-12-30T04:52:31.889Z,1023.18
2018-12-30T04:53:31.878Z,1023.32
2018-12-30T04:54:31.866Z,1023.27
2018-12-30T04:55:31.858Z,1023.09
2018-12-30T04:56:31.940Z,1023.13
2018-12-30T04:57:31.834Z,1023.25
2018-12-30T04:58:31.827Z,1023.51
2018-12-30T04:59:31.836Z,1023.62
2018-12-30T05:00:31.799Z,1023.47
2018-12-30T05:01:31.821Z,1023.48
2018-12-30T05:02:31.777Z,1023.80
2018-12-30T05:03:31.767Z,1023.81
2018-12-30T05:04:31.759Z,1023.61
2018-12-30T05:05:31.751Z,1023.54
2018-12-30T05:06:31.769Z,1023.60
2018-12-30T05:07:31.728Z,1023.51
2018-12-30T05:08:31.717Z,1023.45
2018-12-30T05:09:31.699Z,1023.34
2018-12-30T05:10:31.687Z,1023.35
2018-12-30T05:11:31.692Z,1023.42
2018-12-30T05:12:31.693Z,1023.51
2018-12-30T05:13:31.659Z,1023.69
2018-12-30T05:14:31.644Z,1023.68
2018-12-30T05:15:31.632Z,1023.53
2018-12-30T05:16:31.623Z,1023.50
2018-12-30T05:17:31.635Z,1023.70
2018-12-30T05:18:31.598Z,1023.77
2018-12-30T05:19:31.591Z,1023.62
2018-12-30T05:20:31.579Z,1023.70
2018-12-30T05:21:31.573Z,1023.93
2018-12-30T05:22:33.914Z,1023.88
2018-12-30T05:23:31.545Z,1023.80
2018-12-30T05:24:31.542Z,1023.79
2018-12-30T05:25:31.523Z,1023.90
2018-12-30T05:26:31.510Z,1023.91
2018-12-30T05:27:31.527Z,1024.01
2018-12-30T05:28:31.489Z,1024.01
2018-12-30T05:29:31.486Z,1023.97
2018-12-30T05:30:31.499Z,1024.08
2018-12-30T05:31:31.457Z,1024.02
2018-12-30T05:32:31.470Z,1023.69
2018-12-30T05:33:31.434Z,1023.49
2018-12-30T05:34:31.425Z,1023.63
2018-12-30T05:35:31.415Z,1023.62
2018-12-30T05:36:31.403Z,1023.57
2018-12-30T05:37:31.421Z,1023.79
2018-12-30T05:38:31.376Z,1024.15
2018-12-30T05:39:31.367Z,1024.15
2018-12-30T05:40:31.356Z,1024.38
2018-12-30T05:41:31.343Z,1024.41
2018-12-30T05:42:31.393Z,1024.53
2018-12-30T05:43:31.320Z,1024.59
2018-12-30T05:44:31.309Z,1024.59
2018-12-30T05:45:31.301Z,1024.49
2018-12-30T05:46:31.295Z,1024.49
2018-12-30T05:47:31.277Z,1024.42
2018-12-30T05:48:31.291Z,1024.29
2018-12-30T05:49:31.254Z,1024.06
2018-12-30T05:50:31.242Z,1023.92
2018-12-30T05:51:31.233Z,1023.77
2018-12-30T05:52:31.220Z,1023.32
2018-12-30T05:53:31.232Z,1023.20
2018-12-30T05:54:31.198Z,1023.25
2018-12-30T05:55:31.191Z,1023.59
2018-12-30T05:56:32.070Z,1023.89
2018-12-30T05:57:31.167Z,1024.04
2018-12-30T05:58:31.179Z,1024.12
2018-12-30T05:59:31.144Z,1024.22
2018-12-30T06:00:31.130Z,1024.31
2018-12-30T06:01:31.123Z,1024.29
2018-12-30T06:02:31.108Z,1024.24
2018-12-30T06:03:31.122Z,1024.23
2018-12-30T06:04:31.085Z,1024.25
2018-12-30T06:05:31.074Z,1024.32
2018-12-30T06:06:31.066Z,1024.18
2018-12-30T06:07:31.051Z,1024.04
2018-12-30T06:08:31.064Z,1023.99
2018-12-30T06:09:31.030Z,1023.94
2018-12-30T06:10:31.019Z,1023.98
2018-12-30T06:11:31.012Z,1024.12
2018-12-30T06:12:31.000Z,1024.10
2018-12-30T06:13:31.007Z,1023.99
2018-12-30T06:14:30.973Z,1023.99
2018-12-30T06:15:30.962Z,1024.18
2018-12-30T06:16:30.952Z,1024.19
2018-12-30T06:17:30.962Z,1024.13
2018-12-30T06:18:30.953Z,1024.08
2018-12-30T06:19:30.918Z,1023.97
2018-12-30T06:20:30.907Z,1023.98
2018-12-30T06:21:30.896Z,1023.99
2018-12-30T06:22:30.884Z,1024.05
2018-12-30T06:23:30.897Z,1024.13
2018-12-30T06:24:30.870Z,1024.25
2018-12-30T06:25:30.852Z,1024.23
2018-12-30T06:26:30.840Z,1024.28
2018-12-30T06:27:30.830Z,1024.35
2018-12-30T06:28:30.861Z,1024.28
2018-12-30T06:29:30.806Z,1024.19
2018-12-30T06:30:30.794Z,1024.26
2018-12-30T06:31:30.789Z,1024.28
2018-12-30T06:32:30.782Z,1024.37
2018-12-30T06:33:30.762Z,1024.45
2018-12-30T06:34:30.780Z,1024.30
2018-12-30T06:35:30.740Z,1024.26
2018-12-30T06:36:30.734Z,1024.27
2018-12-30T06:37:30.719Z,1024.41
2018-12-30T06:38:30.724Z,1024.42
2018-12-30T06:39:30.716Z,1024.41
2018-12-30T06:40:30.683Z,1024.50
2018-12-30T06:41:30.677Z,1024.56
2018-12-30T06:42:30.659Z,1024.60
2018-12-30T06:43:30.650Z,1024.65
2018-12-30T06:44:30.662Z,1024.64
2018-12-30T06:45:30.630Z,1024.66
2018-12-30T06:46:30.617Z,1024.74
2018-12-30T06:47:30.605Z,1024.69
2018-12-30T06:48:30.614Z,1024.66
2018-12-30T06:49:30.616Z,1024.68
2018-12-30T06:50:30.576Z,1024.69
2018-12-30T06:51:30.559Z,1024.67
2018-12-30T06:52:30.549Z,1024.71
2018-12-30T06:53:30.541Z,1024.81
2018-12-30T06:54:30.564Z,1024.84
2018-12-30T06:55:30.514Z,1024.80
2018-12-30T06:56:30.503Z,1024.71
2018-12-30T06:57:30.492Z,1024.80
2018-12-30T06:58:30.485Z,1024.87
2018-12-30T06:59:30.469Z,1024.87
2018-12-30T07:00:30.482Z,1024.80
2018-12-30T07:01:30.447Z,1024.86
2018-12-30T07:02:30.437Z,1024.85
2018-12-30T07:03:30.425Z,1025.04
2018-12-30T07:04:30.422Z,1024.95
2018-12-30T07:05:30.425Z,1024.92
2018-12-30T07:06:30.392Z,1024.96
2018-12-30T07:07:30.381Z,1024.96
2018-12-30T07:08:39.612Z,1024.85
2018-12-30T07:09:30.358Z,1024.86
2018-12-30T07:10:30.370Z,1024.88
2018-12-30T07:11:30.337Z,1024.86
2018-12-30T07:12:30.328Z,1024.93
2018-12-30T07:13:30.317Z,1025.00
2018-12-30T07:14:30.303Z,1025.10
2018-12-30T07:15:30.315Z,1025.10
2018-12-30T07:16:30.285Z,1025.12
2018-12-30T07:17:30.272Z,1025.22
2018-12-30T07:18:30.260Z,1025.23
2018-12-30T07:19:30.246Z,1025.20
2018-12-30T07:20:30.262Z,1025.25
2018-12-30T07:21:30.223Z,1025.32
2018-12-30T07:22:30.213Z,1025.30
2018-12-30T07:23:30.201Z,1025.35
2018-12-30T07:24:38.584Z,1025.34
2018-12-30T07:25:30.214Z,1025.32
2018-12-30T07:26:30.172Z,1025.38
2018-12-30T07:27:30.158Z,1025.35
2018-12-30T07:28:30.152Z,1025.35
2018-12-30T07:29:30.138Z,1025.42
2018-12-30T07:30:30.169Z,1025.40
2018-12-30T07:31:30.136Z,1025.43
2018-12-30T07:32:30.102Z,1025.45
2018-12-30T07:33:30.092Z,1025.43
2018-12-30T07:34:30.081Z,1025.44
2018-12-30T07:35:30.068Z,1025.47
2018-12-30T07:36:30.084Z,1025.55
2018-12-30T07:37:30.052Z,1025.47
2018-12-30T07:38:30.038Z,1025.43
2018-12-30T07:39:30.025Z,1025.45
2018-12-30T07:40:38.587Z,1025.43
2018-12-30T07:41:30.032Z,1025.45
2018-12-30T07:42:29.993Z,1025.51
2018-12-30T07:43:29.981Z,1025.42
2018-12-30T07:44:29.970Z,1025.43
2018-12-30T07:45:29.957Z,1025.45
2018-12-30T07:46:29.977Z,1025.43
2018-12-30T07:47:29.935Z,1025.47
2018-12-30T07:48:29.926Z,1025.46
2018-12-30T07:49:29.914Z,1025.45
2018-12-30T07:50:29.901Z,1025.50
2018-12-30T07:51:29.914Z,1025.46
2018-12-30T07:52:29.880Z,1025.41
2018-12-30T07:53:38.490Z,1025.43
2018-12-30T07:54:29.860Z,1025.56
2018-12-30T07:55:29.846Z,1025.57
2018-12-30T07:56:29.874Z,1025.54
2018-12-30T07:57:29.824Z,1025.49
2018-12-30T07:58:29.843Z,1025.57
2018-12-30T07:59:29.803Z,1025.60
2018-12-30T08:00:39.088Z,1025.57
2018-12-30T08:01:29.782Z,1025.60
2018-12-30T08:02:29.792Z,1025.57
2018-12-30T08:03:29.756Z,1025.52
2018-12-30T08:04:29.747Z,1025.54
2018-12-30T08:05:29.736Z,1025.55
2018-12-30T08:06:29.724Z,1025.54
2018-12-30T08:07:29.737Z,1025.53
2018-12-30T08:08:29.707Z,1025.53
2018-12-30T08:09:29.698Z,1025.54
2018-12-30T08:10:29.680Z,1025.63
2018-12-30T08:11:37.882Z,1025.60
2018-12-30T08:12:29.680Z,1025.55
2018-12-30T08:13:29.646Z,1025.54
2018-12-30T08:14:29.635Z,1025.55
2018-12-30T08:15:29.624Z,1025.56
2018-12-30T08:16:29.614Z,1025.60
2018-12-30T08:17:29.624Z,1025.61
2018-12-30T08:18:29.591Z,1025.59
2018-12-30T08:19:29.585Z,1025.55
2018-12-30T08:20:29.568Z,1025.59
2018-12-30T08:21:29.564Z,1025.64
2018-12-30T08:22:38.832Z,1025.65
2018-12-30T08:23:29.634Z,1025.61
2018-12-30T08:24:29.531Z,1025.65
2018-12-30T08:25:37.756Z,1025.59
2018-12-30T08:26:29.503Z,1025.57
2018-12-30T08:27:29.490Z,1025.61
2018-12-30T08:28:29.503Z,1025.67
2018-12-30T08:29:29.467Z,1025.67
2018-12-30T08:30:29.458Z,1025.70
2018-12-30T08:31:29.446Z,1025.65
2018-12-30T08:32:39.131Z,1025.68
2018-12-30T08:33:29.450Z,1025.72
2018-12-30T08:34:29.414Z,1025.74
2018-12-30T08:35:29.401Z,1025.71
2018-12-30T08:36:29.393Z,1025.77
2018-12-30T08:37:29.382Z,1025.69
2018-12-30T08:38:29.394Z,1025.74
2018-12-30T08:39:29.358Z,1025.72
2018-12-30T08:40:29.362Z,1025.74
2018-12-30T08:41:29.334Z,1025.76
2018-12-30T08:42:29.327Z,1025.76
2018-12-30T08:43:29.334Z,1025.70
2018-12-30T08:44:29.302Z,1025.72
2018-12-30T08:45:29.290Z,1025.81
2018-12-30T08:46:29.278Z,1025.83
2018-12-30T08:47:29.269Z,1025.89
2018-12-30T08:48:38.521Z,1025.86
2018-12-30T08:49:29.252Z,1025.89
2018-12-30T08:50:29.234Z,1025.92
2018-12-30T08:51:29.223Z,1025.98
2018-12-30T08:52:29.216Z,1025.97
2018-12-30T08:53:29.625Z,1025.93
2018-12-30T08:54:29.194Z,1025.93
2018-12-30T08:55:38.391Z,1026.00
2018-12-30T08:56:29.169Z,1025.96
2018-12-30T08:57:29.159Z,1025.94
2018-12-30T08:58:29.171Z,1026.00
2018-12-30T08:59:29.135Z,1026.03
2018-12-30T09:00:37.350Z,1026.03
2018-12-30T09:01:29.112Z,1025.99
2018-12-30T09:02:29.101Z,1025.99
2018-12-30T09:03:29.134Z,1026.04
2018-12-30T09:04:29.080Z,1025.99
2018-12-30T09:05:29.076Z,1026.02
2018-12-30T09:06:29.056Z,1025.97
2018-12-30T09:07:29.083Z,1026.00
2018-12-30T09:08:29.036Z,1026.07
2018-12-30T09:09:29.095Z,1025.98
2018-12-30T09:10:29.013Z,1025.98
2018-12-30T09:11:37.892Z,1025.96
2018-12-30T09:12:28.996Z,1025.96
2018-12-30T09:13:37.355Z,1025.92
2018-12-30T09:14:28.992Z,1025.94
2018-12-30T09:15:28.962Z,1025.94
2018-12-30T09:16:28.954Z,1026.00
2018-12-30T09:17:28.937Z,1026.00
2018-12-30T09:18:28.926Z,1026.00
2018-12-30T09:19:28.966Z,1025.96
2018-12-30T09:20:28.967Z,1025.89
2018-12-30T09:21:29.038Z,1025.96
2018-12-30T09:22:28.882Z,1026.01
2018-12-30T09:23:28.913Z,1026.08
2018-12-30T09:24:28.895Z,1026.14
2018-12-30T09:25:28.886Z,1026.07
2018-12-30T09:26:28.846Z,1025.98
2018-12-30T09:27:38.267Z,1026.04
2018-12-30T09:28:28.813Z,1026.03
2018-12-30T09:29:28.832Z,1026.10
2018-12-30T09:30:37.298Z,1026.14
2018-12-30T09:31:28.782Z,1026.11
2018-12-30T09:32:28.769Z,1026.16
2018-12-30T09:33:28.760Z,1026.15
2018-12-30T09:34:28.785Z,1026.15
2018-12-30T09:35:28.737Z,1026.17
2018-12-30T09:36:28.724Z,1026.22
2018-12-30T09:37:28.714Z,1026.14
2018-12-30T09:38:28.703Z,1026.18
2018-12-30T09:39:28.690Z,1026.22
2018-12-30T09:40:28.704Z,1026.19
2018-12-30T09:41:28.743Z,1026.20
2018-12-30T09:42:28.663Z,1026.20
2018-12-30T09:43:28.648Z,1026.20
2018-12-30T09:44:28.637Z,1026.14
2018-12-30T09:45:28.648Z,1026.15
2018-12-30T09:46:28.613Z,1026.12
2018-12-30T09:47:28.688Z,1026.12
2018-12-30T09:48:33.744Z,1026.18
2018-12-30T09:49:28.603Z,1026.23
2018-12-30T09:50:28.671Z,1026.23
2018-12-30T09:51:38.089Z,1026.20
2018-12-30T09:52:28.547Z,1026.19
2018-12-30T09:53:44.932Z,1026.21
2018-12-30T09:54:29.528Z,1026.24
2018-12-30T09:55:28.538Z,1026.22
2018-12-30T09:56:28.507Z,1026.22
2018-12-30T09:57:28.495Z,1026.16
2018-12-30T09:58:28.480Z,1026.08
2018-12-30T09:59:28.470Z,1026.10
2018-12-30T10:00:28.481Z,1026.13
2018-12-30T10:01:28.449Z,1026.18
2018-12-30T10:02:28.435Z,1026.18
2018-12-30T10:03:28.428Z,1026.22
2018-12-30T10:04:28.415Z,1026.19
2018-12-30T10:05:28.432Z,1026.21
2018-12-30T10:06:28.395Z,1026.24
2018-12-30T10:07:28.404Z,1026.25
2018-12-30T10:08:29.344Z,1026.28
2018-12-30T10:09:28.358Z,1026.21
2018-12-30T10:10:28.378Z,1026.17
2018-12-30T10:11:28.335Z,1026.11
2018-12-30T10:12:28.325Z,1026.05
2018-12-30T10:13:37.785Z,1026.11
2018-12-30T10:14:28.323Z,1026.12
2018-12-30T10:15:28.316Z,1026.19
2018-12-30T10:16:28.280Z,1026.23
2018-12-30T10:17:28.269Z,1026.32
2018-12-30T10:18:28.260Z,1026.34
2018-12-30T10:19:36.896Z,1026.38
2018-12-30T10:20:28.258Z,1026.38
2018-12-30T10:21:28.227Z,1026.41
2018-12-30T10:22:28.220Z,1026.42
2018-12-30T10:23:28.203Z,1026.42
2018-12-30T10:24:28.192Z,1026.45
2018-12-30T10:25:28.341Z,1026.43
2018-12-30T10:26:28.169Z,1026.47
2018-12-30T10:27:28.174Z,1026.42
2018-12-30T10:28:28.146Z,1026.39
2018-12-30T10:29:28.139Z,1026.41
2018-12-30T10:30:28.126Z,1026.42
2018-12-30T10:31:28.139Z,1026.45
2018-12-30T10:32:28.106Z,1026.49
2018-12-30T10:33:28.092Z,1026.49
2018-12-30T10:34:37.051Z,1026.52
2018-12-30T10:35:28.151Z,1026.48
2018-12-30T10:36:28.196Z,1026.47
2018-12-30T10:37:38.112Z,1026.50
2018-12-30T10:38:28.055Z,1026.48
2018-12-30T10:39:28.075Z,1026.42
2018-12-30T10:40:28.080Z,1026.44
2018-12-30T10:41:28.170Z,1026.42
2018-12-30T10:42:28.051Z,1026.47
2018-12-30T10:43:28.056Z,1026.53
2018-12-30T10:44:28.008Z,1026.52
2018-12-30T10:45:27.975Z,1026.56
2018-12-30T10:46:27.981Z,1026.60
2018-12-30T10:47:28.036Z,1026.57
2018-12-30T10:48:27.962Z,1026.60
2018-12-30T10:49:27.979Z,1026.62
2018-12-30T10:50:27.958Z,1026.55
2018-12-30T10:51:27.948Z,1026.56
2018-12-30T10:52:28.030Z,1026.60
2018-12-30T10:53:27.870Z,1026.59
2018-12-30T10:54:27.858Z,1026.62
2018-12-30T10:55:38.653Z,1026.66
2018-12-30T10:56:27.837Z,1026.73
2018-12-30T10:57:27.846Z,1026.68
2018-12-30T10:58:36.163Z,1026.65
2018-12-30T10:59:27.801Z,1026.62
2018-12-30T11:00:27.813Z,1026.62
2018-12-30T11:01:27.787Z,1026.64
2018-12-30T11:02:27.814Z,1026.64
2018-12-30T11:03:27.757Z,1026.69
2018-12-30T11:04:27.750Z,1026.66
2018-12-30T11:05:27.739Z,1026.62
2018-12-30T11:06:27.729Z,1026.64
2018-12-30T11:07:27.771Z,1026.56
2018-12-30T11:08:27.714Z,1026.58
2018-12-30T11:09:27.704Z,1026.56
2018-12-30T11:10:27.682Z,1026.57
2018-12-30T11:11:27.668Z,1026.49
2018-12-30T11:12:27.656Z,1026.46
2018-12-30T11:13:27.669Z,1026.43
2018-12-30T11:14:27.634Z,1026.40
2018-12-30T11:15:27.628Z,1026.34
2018-12-30T11:16:27.613Z,1026.34
2018-12-30T11:17:27.604Z,1026.34
2018-12-30T11:18:27.615Z,1026.34
2018-12-30T11:19:27.584Z,1026.39
2018-12-30T11:20:27.566Z,1026.35
2018-12-30T11:21:27.561Z,1026.35
2018-12-30T11:22:27.604Z,1026.33
2018-12-30T11:23:27.560Z,1026.24
2018-12-30T11:24:27.523Z,1026.25
2018-12-30T11:25:27.513Z,1026.20
2018-12-30T11:26:27.501Z,1026.11
2018-12-30T11:27:27.492Z,1026.15
2018-12-30T11:28:27.508Z,1026.18
2018-12-30T11:29:27.470Z,1026.11
2018-12-30T11:30:27.458Z,1026.01
2018-12-30T11:31:27.445Z,1026.03
2018-12-30T11:32:27.436Z,1026.02
2018-12-30T11:33:27.594Z,1026.03
2018-12-30T11:34:27.556Z,1026.01
2018-12-30T11:35:27.404Z,1025.92
2018-12-30T11:36:27.389Z,1025.95
2018-12-30T11:37:36.627Z,1025.88
2018-12-30T11:38:27.370Z,1025.85
2018-12-30T11:39:27.378Z,1025.88
2018-12-30T11:40:35.737Z,1025.90
2018-12-30T11:41:27.341Z,1025.89
2018-12-30T11:42:27.330Z,1025.96
2018-12-30T11:43:27.314Z,1025.97
2018-12-30T11:44:27.324Z,1025.90
2018-12-30T11:45:27.300Z,1025.90
2018-12-30T11:46:27.277Z,1025.83
2018-12-30T11:47:35.508Z,1025.85
2018-12-30T11:48:27.263Z,1025.87
2018-12-30T11:49:27.267Z,1025.86
2018-12-30T11:50:27.235Z,1025.86
2018-12-30T11:51:35.578Z,1025.87
2018-12-30T11:52:27.212Z,1025.85
2018-12-30T11:53:27.201Z,1025.89
2018-12-30T11:54:27.214Z,1025.87
2018-12-30T11:55:27.182Z,1025.85
2018-12-30T11:56:27.309Z,1025.83
2018-12-30T11:57:27.158Z,1025.89
2018-12-30T11:58:27.144Z,1025.87
2018-12-30T11:59:27.182Z,1025.84
2018-12-30T12:00:27.124Z,1025.81
2018-12-30T12:01:27.111Z,1025.76
2018-12-30T12:02:27.101Z,1025.75
2018-12-30T12:03:27.089Z,1025.76
2018-12-30T12:04:27.079Z,1025.79
2018-12-30T12:05:27.087Z,1025.77